Time;durP1;ratioP1;P1;durP2;ratioP2;P2;SDS_P1;SDS_P2;PMS_P1;PMS_P2;Temp;Humidity;BMP_temperature;BMP_pressure;BME280_temperature;BME280_humidity;BME280_pressure;Samples;Min_cycle;Max_cycle;Signal;HPM_P1;HPM_P2
2023/08/19 00:00:21;;;;;;;12.32;6.93;;;;;;;22.98;91.92;100810.41;4989001;28;20039;-71
2023/08/19 00:02:46;;;;;;;9.13;6.70;;;;;;;22.98;92.07;100806.94;4968881;28;20019;-71
2023/08/19 00:05:12;;;;;;;9.25;6.35;;;;;;;22.92;92.29;100810.75;4988547;28;20125;-71
2023/08/19 00:07:37;;;;;;;10.38;6.25;;;;;;;22.88;92.52;100806.63;4984298;28;20408;-71
2023/08/19 00:10:04;;;;;;;11.10;6.25;;;;;;;22.82;93.13;100802.56;4987271;28;21512;-71
2023/08/19 00:12:30;;;;;;;11.48;6.93;;;;;;;22.81;93.54;100800.84;4982966;28;20046;-71
2023/08/19 00:14:56;;;;;;;9.48;7.50;;;;;;;22.77;93.60;100799.31;4984841;28;20080;-71
2023/08/19 00:17:24;;;;;;;9.55;6.53;;;;;;;22.76;93.21;100799.44;4984837;28;20036;-72
2023/08/19 00:19:50;;;;;;;8.43;6.57;;;;;;;22.74;93.34;100799.50;4943906;28;20030;-71
2023/08/19 00:22:15;;;;;;;9.57;7.07;;;;;;;22.71;93.30;100806.75;4980273;28;20501;-72
2023/08/19 00:24:41;;;;;;;10.93;6.43;;;;;;;22.71;93.17;100801.50;4984104;28;20066;-71
2023/08/19 00:27:06;;;;;;;7.03;5.72;;;;;;;22.72;92.72;100796.13;4980845;28;20030;-71
2023/08/19 00:29:32;;;;;;;10.35;5.95;;;;;;;22.69;92.95;100796.28;4984789;28;20408;-71
2023/08/19 00:31:57;;;;;;;7.32;5.97;;;;;;;22.65;92.82;100801.84;4965373;28;20749;-71
2023/08/19 00:34:22;;;;;;;8.30;5.88;;;;;;;22.62;93.13;100799.38;4985114;28;20026;-71
2023/08/19 00:36:48;;;;;;;9.52;6.55;;;;;;;22.58;93.34;100795.22;4969034;28;20121;-71
2023/08/19 00:39:13;;;;;;;9.55;5.97;;;;;;;22.53;93.64;100806.00;4963860;28;20042;-71
2023/08/19 00:41:39;;;;;;;7.13;5.28;;;;;;;22.49;93.63;100801.88;4983187;28;20530;-71
2023/08/19 00:44:05;;;;;;;6.72;5.78;;;;;;;22.45;93.74;100804.75;4972442;28;20129;-71
2023/08/19 00:46:31;;;;;;;14.13;6.35;;;;;;;22.43;93.92;100796.09;4983509;28;20121;-71
2023/08/19 00:48:57;;;;;;;11.05;5.95;;;;;;;22.41;93.94;100793.56;4979815;28;20050;-71
2023/08/19 00:51:23;;;;;;;10.27;5.90;;;;;;;22.35;93.72;100794.69;4977698;28;20045;-71
2023/08/19 00:53:49;;;;;;;7.88;5.65;;;;;;;22.34;93.79;100795.66;4985720;28;20492;-71
2023/08/19 00:56:15;;;;;;;11.85;6.15;;;;;;;22.31;93.46;100809.00;4967173;28;20085;-71
2023/08/19 00:58:41;;;;;;;9.50;5.75;;;;;;;22.28;93.47;100803.03;4976634;28;20116;-71
2023/08/19 01:01:07;;;;;;;8.88;5.45;;;;;;;22.27;93.46;100810.09;4980780;28;20089;-71
2023/08/19 01:03:33;;;;;;;8.95;6.20;;;;;;;22.27;93.03;100802.19;4979313;28;20053;-71
2023/08/19 01:06:28;;;;;;;9.13;5.25;;;;;;;22.23;93.06;100795.38;4977037;28;20038;-71
2023/08/19 01:09:29;;;;;;;7.80;5.20;;;;;;;22.20;92.75;100795.56;4960762;28;20043;-71
2023/08/19 01:12:25;;;;;;;8.57;5.32;;;;;;;22.17;92.93;100795.75;4872485;29;20052;-71
2023/08/19 01:15:19;;;;;;;11.20;5.05;;;;;;;22.15;92.82;100796.75;4965351;28;20788;-71
2023/08/19 01:17:48;;;;;;;7.72;5.45;;;;;;;22.14;92.73;100795.91;4981759;28;20201;-71
2023/08/19 01:20:15;;;;;;;7.68;5.15;;;;;;;22.11;92.98;100795.25;4985749;28;20117;-70
2023/08/19 01:23:27;;;;;;;7.38;4.63;;;;;;;22.10;92.65;100802.28;4996279;28;20035;-71
2023/08/19 01:25:53;;;;;;;7.80;4.70;;;;;;;22.07;92.98;100798.97;4970275;28;20046;-71
2023/08/19 01:28:20;;;;;;;9.65;5.20;;;;;;;22.05;92.45;100785.91;4982505;28;20084;-71
2023/08/19 01:30:45;;;;;;;9.93;5.75;;;;;;;22.05;92.63;100795.56;4983929;28;20038;-71
2023/08/19 01:33:11;;;;;;;8.70;5.10;;;;;;;22.02;92.88;100793.97;4963717;28;20037;-71
2023/08/19 01:35:41;;;;;;;10.55;5.20;;;;;;;22.00;93.01;100785.28;4967403;28;20030;-71
2023/08/19 01:38:36;;;;;;;6.25;4.97;;;;;;;22.01;92.99;100787.00;4962975;28;20063;-71
2023/08/19 01:41:03;;;;;;;;;;;;;;;21.98;92.94;100789.78;4978988;28;20039;-71
2023/08/19 01:43:30;;;;;;;10.52;4.90;;;;;;;21.98;92.93;100781.91;4979785;28;19985;-71
2023/08/19 01:45:55;;;;;;;8.85;5.63;;;;;;;21.99;92.76;100780.97;4973366;28;20047;-71
2023/08/19 01:48:21;;;;;;;6.57;4.53;;;;;;;21.99;92.92;100777.47;4960701;28;20762;-71
2023/08/19 01:50:46;;;;;;;8.10;5.55;;;;;;;21.97;93.14;100782.00;4980438;28;20117;-71
2023/08/19 01:53:11;;;;;;;8.98;5.07;;;;;;;21.93;93.17;100778.69;4967234;28;20065;-71
2023/08/19 01:55:37;;;;;;;8.70;4.82;;;;;;;21.89;93.50;100777.13;4963170;28;20291;-71
2023/08/19 01:58:02;;;;;;;11.40;5.05;;;;;;;21.84;93.68;100775.69;4977470;28;20149;-71
2023/08/19 02:00:28;;;;;;;11.45;5.32;;;;;;;21.79;93.92;100782.03;4985366;28;20042;-70
2023/08/19 02:02:53;;;;;;;8.27;5.05;;;;;;;21.74;94.06;100789.34;4966217;28;21882;-72
2023/08/19 02:05:19;;;;;;;7.93;4.97;;;;;;;21.73;94.15;100790.25;4968699;28;20035;-71
2023/08/19 02:07:44;;;;;;;6.90;4.80;;;;;;;21.73;94.05;100786.78;4988048;28;21853;-72
2023/08/19 02:10:11;;;;;;;7.55;4.80;;;;;;;21.75;94.22;100796.31;4984489;28;20045;-71
2023/08/19 02:12:36;;;;;;;11.85;4.63;;;;;;;21.76;94.16;100789.25;4984073;28;20042;-71
2023/08/19 02:15:02;;;;;;;8.90;5.70;;;;;;;21.77;94.31;100783.06;4993972;28;20037;-72
2023/08/19 02:17:28;;;;;;;10.07;5.15;;;;;;;21.79;94.10;100774.16;4968772;28;20031;-72
2023/08/19 02:19:53;;;;;;;9.75;5.68;;;;;;;21.82;93.85;100776.59;4975631;28;20692;-71
2023/08/19 02:22:20;;;;;;;8.23;5.03;;;;;;;21.86;93.50;100779.06;4974024;28;20042;-71
2023/08/19 02:24:46;;;;;;;8.23;5.40;;;;;;;21.88;93.45;100775.41;4972316;28;20283;-72
2023/08/19 02:27:12;;;;;;;6.35;5.00;;;;;;;21.88;93.59;100783.31;4970704;28;20046;-71
2023/08/19 02:29:37;;;;;;;11.38;5.13;;;;;;;21.89;93.42;100785.03;4970364;28;20045;-71
2023/08/19 02:32:03;;;;;;;8.57;5.13;;;;;;;21.91;92.98;100780.53;4984613;28;20042;-71
2023/08/19 02:34:28;;;;;;;8.52;5.30;;;;;;;21.93;92.82;100783.09;4984256;28;20050;-71
2023/08/19 02:36:53;;;;;;;6.70;4.80;;;;;;;21.92;92.78;100774.34;4968197;28;20053;-70
2023/08/19 02:39:19;;;;;;;10.57;5.18;;;;;;;21.92;93.08;100776.09;4967335;28;20528;-71
2023/08/19 02:41:44;;;;;;;7.80;5.35;;;;;;;21.92;93.18;100771.69;4986273;28;20052;-71
2023/08/19 02:44:09;;;;;;;10.98;5.30;;;;;;;21.91;93.35;100769.16;4988267;28;20125;-72
2023/08/19 02:46:35;;;;;;;12.85;6.03;;;;;;;21.92;93.33;100768.22;4967820;28;20112;-72
2023/08/19 02:49:00;;;;;;;8.38;5.50;;;;;;;21.91;93.36;100770.00;4985290;28;20042;-72
2023/08/19 02:51:26;;;;;;;13.10;5.00;;;;;;;21.93;93.39;100776.03;4970037;28;20050;-72
2023/08/19 02:53:51;;;;;;;7.10;4.82;;;;;;;21.93;93.51;100769.91;4987235;28;20385;-72
2023/08/19 02:56:17;;;;;;;14.57;5.55;;;;;;;21.88;93.93;100772.78;4982800;28;20046;-71
2023/08/19 02:58:42;;;;;;;10.20;5.95;;;;;;;21.87;93.83;100765.00;4954564;28;20031;-71
2023/08/19 03:01:12;;;;;;;8.50;5.00;;;;;;;21.85;94.01;100761.59;4983857;28;20198;-72
2023/08/19 03:03:37;;;;;;;9.52;5.78;;;;;;;21.82;93.80;100752.06;4981972;28;20069;-72
2023/08/19 03:06:03;;;;;;;7.43;5.15;;;;;;;21.82;93.63;100758.19;4985109;28;20461;-71
2023/08/19 03:08:28;;;;;;;6.85;4.55;;;;;;;21.81;93.76;100750.41;4972720;28;20026;-71
2023/08/19 03:10:54;;;;;;;6.15;5.00;;;;;;;21.79;93.90;100754.88;4981186;28;20142;-72
2023/08/19 03:13:19;;;;;;;8.55;4.78;;;;;;;21.77;93.75;100752.34;4988882;28;20045;-72
2023/08/19 03:15:45;;;;;;;7.90;4.43;;;;;;;21.77;93.78;100754.13;4991265;28;20129;-71
2023/08/19 03:18:11;;;;;;;8.07;4.47;;;;;;;21.74;93.85;100749.03;4986044;28;20031;-72
2023/08/19 03:20:36;;;;;;;9.40;4.47;;;;;;;21.71;93.84;100757.94;4971122;28;20574;-72
2023/08/19 03:23:02;;;;;;;11.80;5.32;;;;;;;21.76;93.50;100753.25;4985109;28;20137;-71
2023/08/19 03:25:27;;;;;;;8.57;4.90;;;;;;;21.76;93.44;100755.03;4982668;28;20041;-71
2023/08/19 03:27:53;;;;;;;8.05;5.05;;;;;;;21.75;93.48;100751.59;4987304;28;20038;-71
2023/08/19 03:30:18;;;;;;;9.27;4.82;;;;;;;21.73;93.44;100752.56;4991108;28;20038;-71
2023/08/19 03:32:44;;;;;;;7.30;4.80;;;;;;;21.72;93.45;100745.63;4987422;28;20085;-71
2023/08/19 03:35:09;;;;;;;8.38;5.07;;;;;;;21.71;93.30;100746.56;4985738;28;20042;-71
2023/08/19 03:37:35;;;;;;;7.60;4.70;;;;;;;21.72;93.21;100749.13;4953773;28;20671;-71
2023/08/19 03:40:00;;;;;;;10.45;4.78;;;;;;;21.68;93.50;100757.25;4973504;28;20078;-71
2023/08/19 03:42:25;;;;;;;6.60;5.05;;;;;;;21.62;93.83;100750.53;4977394;28;20054;-71
2023/08/19 03:44:51;;;;;;;7.38;4.18;;;;;;;21.61;93.89;100751.47;4983624;28;20033;-71
2023/08/19 03:47:16;;;;;;;6.63;4.82;;;;;;;21.58;93.89;100749.00;4985014;28;20046;-71
2023/08/19 03:49:42;;;;;;;8.05;4.28;;;;;;;21.55;94.12;100753.56;4984344;28;20035;-71
2023/08/19 03:52:08;;;;;;;5.30;4.10;;;;;;;21.53;94.24;100752.78;4981609;28;20050;-71
2023/08/19 03:54:34;;;;;;;7.35;4.47;;;;;;;21.50;94.18;100753.78;4980555;28;20042;-71
2023/08/19 03:56:59;;;;;;;8.18;4.70;;;;;;;21.48;94.55;100755.66;4980801;28;20033;-71
2023/08/19 03:59:25;;;;;;;9.85;4.80;;;;;;;21.47;94.65;100753.94;4981234;28;20054;-71
2023/08/19 04:01:50;;;;;;;8.70;4.80;;;;;;;21.47;94.68;100751.31;4986918;28;20038;-71
2023/08/19 04:04:16;;;;;;;8.07;4.70;;;;;;;21.47;94.69;100755.72;4986597;28;20037;-71
2023/08/19 04:06:41;;;;;;;6.57;4.45;;;;;;;21.46;94.71;100754.88;4980669;28;20571;-71
2023/08/19 04:09:08;;;;;;;8.82;5.00;;;;;;;21.46;94.87;100757.50;4980212;28;20031;-71
2023/08/19 04:11:33;;;;;;;6.97;4.57;;;;;;;21.47;95.00;100759.22;4982550;28;20030;-71
2023/08/19 04:13:58;;;;;;;6.38;4.13;;;;;;;21.48;94.87;100760.94;4983777;28;20041;-71
2023/08/19 04:16:24;;;;;;;5.68;4.38;;;;;;;21.51;94.53;100759.91;4985348;28;20046;-71
2023/08/19 04:18:53;;;;;;;5.35;3.58;;;;;;;21.54;94.36;100759.75;4985360;28;20038;-71
2023/08/19 04:21:18;;;;;;;6.93;4.60;;;;;;;21.55;94.29;100764.09;4985492;28;20034;-72
2023/08/19 04:23:43;;;;;;;9.20;5.00;;;;;;;21.56;94.06;100760.53;4975307;28;20124;-71
2023/08/19 04:26:09;;;;;;;6.40;4.50;;;;;;;21.58;94.00;100759.50;4990852;28;20042;-71
2023/08/19 04:28:35;;;;;;;8.52;4.60;;;;;;;21.59;94.07;100755.97;4983075;28;20057;-72
2023/08/19 04:31:05;;;;;;;10.38;5.78;;;;;;;21.58;93.83;100766.59;4980780;28;20038;-71
2023/08/19 04:33:30;;;;;;;8.10;5.15;;;;;;;21.60;94.05;100764.72;4981559;28;20030;-72
2023/08/19 04:35:56;;;;;;;10.20;4.53;;;;;;;21.61;93.90;100761.97;4983280;28;20404;-72
2023/08/19 04:38:21;;;;;;;7.47;4.55;;;;;;;21.60;94.08;100772.59;4983583;28;20022;-71
2023/08/19 04:40:47;;;;;;;6.20;4.20;;;;;;;21.59;94.14;100766.47;4983943;28;20038;-72
2023/08/19 04:43:12;;;;;;;4.97;3.83;;;;;;;21.60;93.82;100773.44;4967385;28;20493;-72
2023/08/19 04:45:38;;;;;;;6.20;4.28;;;;;;;21.60;94.14;100769.97;4963840;28;20038;-72
2023/08/19 04:48:05;;;;;;;4.88;4.00;;;;;;;21.60;94.08;100778.72;4982157;28;20034;-71
2023/08/19 04:50:31;;;;;;;14.95;4.25;;;;;;;21.59;93.82;100776.16;4984205;28;20741;-72
2023/08/19 04:52:56;;;;;;;5.20;3.85;;;;;;;21.63;93.64;100775.06;4986028;28;20057;-71
2023/08/19 04:55:21;;;;;;;8.93;5.18;;;;;;;21.65;93.89;100778.44;4981195;28;20039;-72
2023/08/19 04:57:47;;;;;;;8.48;5.40;;;;;;;21.66;93.32;100774.91;4979094;28;20040;-72
2023/08/19 05:00:13;;;;;;;7.90;4.53;;;;;;;21.69;93.27;100775.59;4982227;28;20050;-71
2023/08/19 05:02:39;;;;;;;6.28;4.32;;;;;;;21.73;93.35;100778.88;4980455;28;20162;-72
2023/08/19 05:05:05;;;;;;;6.43;4.78;;;;;;;21.77;93.18;100775.16;4981433;28;20133;-71
2023/08/19 05:07:30;;;;;;;6.93;4.30;;;;;;;21.80;93.05;100773.22;4968715;28;20042;-71
2023/08/19 05:09:56;;;;;;;10.32;4.60;;;;;;;21.86;92.79;100768.53;4983716;28;20035;-72
2023/08/19 05:12:22;;;;;;;9.10;4.57;;;;;;;21.93;92.48;100768.16;4982811;28;20184;-70
2023/08/19 05:14:48;;;;;;;5.40;4.60;;;;;;;22.03;92.08;100771.09;4981991;28;20034;-70
2023/08/19 05:17:14;;;;;;;5.88;4.30;;;;;;;22.16;91.70;100774.75;4965998;28;20038;-69
2023/08/19 05:19:39;;;;;;;7.88;4.78;;;;;;;22.31;91.45;100781.81;4982760;28;20108;-71
2023/08/19 05:22:04;;;;;;;7.63;5.75;;;;;;;22.46;90.16;100777.47;4979384;28;20049;-71
2023/08/19 05:24:30;;;;;;;11.35;4.72;;;;;;;22.62;89.72;100781.75;4981398;28;20472;-69
2023/08/19 05:26:55;;;;;;;11.85;4.53;;;;;;;22.78;89.25;100773.81;4978457;28;20035;-71
2023/08/19 05:29:21;;;;;;;7.85;4.35;;;;;;;22.91;88.73;100780.09;4983980;28;20026;-72
2023/08/19 05:31:46;;;;;;;7.60;4.88;;;;;;;23.03;88.22;100774.09;4979841;28;20038;-69
2023/08/19 05:34:11;;;;;;;8.45;4.30;;;;;;;23.18;87.84;100775.00;4962519;28;20031;-70
2023/08/19 05:36:37;;;;;;;9.00;4.65;;;;;;;23.31;87.65;100775.94;4985596;28;20042;-70
2023/08/19 05:39:03;;;;;;;6.97;4.10;;;;;;;23.45;87.27;100778.59;4984589;28;20034;-69
2023/08/19 05:41:28;;;;;;;6.43;4.53;;;;;;;23.51;86.03;100772.09;4980280;28;20118;-70
2023/08/19 05:43:54;;;;;;;9.70;5.30;;;;;;;23.61;85.81;100783.75;4984622;28;20654;-69
2023/08/19 05:46:19;;;;;;;9.77;4.45;;;;;;;23.68;85.68;100785.94;4983646;28;20046;-69
2023/08/19 05:48:45;;;;;;;12.60;4.75;;;;;;;23.77;84.38;100776.59;4968871;28;20121;-70
2023/08/19 05:51:10;;;;;;;8.77;4.65;;;;;;;23.80;83.38;100789.59;4966758;28;20574;-70
2023/08/19 05:53:35;;;;;;;11.75;4.35;;;;;;;23.84;83.80;100780.53;4982913;28;20022;-70
2023/08/19 05:56:01;;;;;;;8.35;4.88;;;;;;;23.88;83.53;100788.19;4997692;28;20046;-69
2023/08/19 05:58:27;;;;;;;10.73;4.53;;;;;;;23.90;84.13;100793.34;4989893;28;20058;-70
2023/08/19 06:00:59;;;;;;;6.45;4.63;;;;;;;23.89;83.62;100812.78;4988687;28;20030;-69
2023/08/19 06:03:25;;;;;;;6.30;4.35;;;;;;;23.88;84.03;100819.00;4984204;28;20045;-70
2023/08/19 06:05:50;;;;;;;7.45;4.57;;;;;;;23.89;84.79;100831.28;4987326;28;20030;-71
2023/08/19 06:08:15;;;;;;;8.75;4.57;;;;;;;23.86;84.00;100837.59;4986189;28;20038;-71
2023/08/19 06:10:44;;;;;;;8.18;4.22;;;;;;;23.84;84.66;100835.97;4971430;28;20460;-68
2023/08/19 06:13:12;;;;;;;8.48;4.40;;;;;;;23.87;84.40;100831.34;4988024;28;20034;-69
2023/08/19 06:15:39;;;;;;;8.98;4.68;;;;;;;23.93;83.92;100824.84;4985218;28;20492;-69
2023/08/19 06:18:05;;;;;;;8.90;4.22;;;;;;;23.94;83.71;100823.91;4988654;28;20388;-69
2023/08/19 06:20:30;;;;;;;14.52;4.40;;;;;;;23.96;82.87;100824.69;4984362;28;20032;-69
2023/08/19 06:22:56;;;;;;;7.50;4.18;;;;;;;24.03;83.50;100841.00;4989055;28;20551;-69
2023/08/19 06:25:21;;;;;;;6.57;4.10;;;;;;;24.08;84.18;100841.53;4991811;28;20117;-69
2023/08/19 06:27:46;;;;;;;8.90;4.60;;;;;;;24.09;84.47;100844.09;4994658;28;20034;-70
2023/08/19 06:30:12;;;;;;;8.70;5.03;;;;;;;24.08;83.56;100830.97;4984203;28;20042;-69
2023/08/19 06:32:38;;;;;;;6.95;4.45;;;;;;;24.11;83.20;100828.13;4975689;28;20322;-70
2023/08/19 06:35:04;;;;;;;12.68;4.65;;;;;;;24.14;83.87;100823.53;4992111;28;20397;-70
2023/08/19 06:37:33;;;;;;;7.13;4.43;;;;;;;24.12;83.03;100828.06;4992038;28;20038;-70
2023/08/19 06:40:06;;;;;;;7.18;4.07;;;;;;;24.16;82.92;100834.84;4994684;28;20129;-70
2023/08/19 06:42:34;;;;;;;8.80;4.38;;;;;;;24.24;82.65;100829.06;4990372;28;20093;-70
2023/08/19 06:45:01;;;;;;;9.07;4.90;;;;;;;24.35;81.84;100832.72;4981157;28;20107;-69
2023/08/19 06:47:30;;;;;;;6.28;3.88;;;;;;;24.51;82.10;100828.16;4987460;28;20030;-70
2023/08/19 06:49:55;;;;;;;8.52;4.10;;;;;;;24.65;81.99;100837.81;4987094;28;20129;-70
2023/08/19 06:52:22;;;;;;;10.80;4.57;;;;;;;24.75;81.76;100827.53;4970552;28;20117;-70
2023/08/19 06:54:48;;;;;;;8.20;4.03;;;;;;;24.75;79.97;100824.88;4984882;28;20401;-70
2023/08/19 06:57:33;;;;;;;7.05;4.30;;;;;;;24.85;80.06;100820.66;4987785;28;20084;-70
2023/08/19 07:00:11;;;;;;;8.73;3.80;;;;;;;24.93;79.99;100826.31;4983507;28;20037;-71
2023/08/19 07:02:38;;;;;;;9.13;3.88;;;;;;;24.99;79.98;100834.69;4982554;28;20038;-71
2023/08/19 07:05:15;;;;;;;13.65;4.20;;;;;;;25.01;79.68;100829.28;4978345;28;20042;-71
2023/08/19 07:07:48;;;;;;;9.00;4.80;;;;;;;24.99;78.74;100839.13;4984875;28;20050;-69
2023/08/19 07:10:18;;;;;;;8.68;4.45;;;;;;;25.02;79.09;100828.34;4983678;28;20038;-69
2023/08/19 07:12:44;;;;;;;8.73;4.10;;;;;;;25.02;79.02;100836.28;4978705;28;20091;-69
2023/08/19 07:15:14;;;;;;;6.78;4.15;;;;;;;25.08;78.65;100831.41;4966077;28;20061;-70
2023/08/19 07:17:54;;;;;;;9.32;4.28;;;;;;;25.08;78.12;100826.09;4965791;28;20037;-71
2023/08/19 07:20:23;;;;;;;7.65;4.55;;;;;;;25.14;79.30;100832.81;4970905;28;20125;-70
2023/08/19 07:22:51;;;;;;;7.78;4.30;;;;;;;25.13;78.14;100832.91;4968772;28;20058;-71
2023/08/19 07:25:17;;;;;;;9.27;4.20;;;;;;;25.17;78.57;100837.03;4980536;28;20043;-70
2023/08/19 07:27:43;;;;;;;11.15;4.50;;;;;;;25.12;77.91;100832.03;4975433;28;20031;-70
2023/08/19 07:30:09;;;;;;;8.35;4.28;;;;;;;25.05;79.27;100841.38;4986697;28;20035;-70
2023/08/19 07:32:36;;;;;;;9.52;4.18;;;;;;;25.02;79.41;100841.56;4967326;28;20027;-71
2023/08/19 07:35:03;;;;;;;8.43;4.70;;;;;;;25.00;79.85;100849.59;4963094;28;20038;-70
2023/08/19 07:37:28;;;;;;;8.02;4.05;;;;;;;25.04;79.59;100850.22;4966510;28;20036;-70
2023/08/19 07:39:54;;;;;;;8.02;4.25;;;;;;;25.05;79.32;100846.66;4966140;28;20845;-70
2023/08/19 07:42:19;;;;;;;8.93;3.85;;;;;;;25.10;78.34;100849.81;4966701;28;20082;-71
2023/08/19 07:44:45;;;;;;;7.70;3.95;;;;;;;25.15;78.05;100857.44;4970179;28;20121;-70
2023/08/19 07:47:10;;;;;;;10.45;4.45;;;;;;;25.20;77.40;100840.34;4964533;28;20122;-70
2023/08/19 07:49:38;;;;;;;5.60;3.83;;;;;;;25.26;77.25;100850.50;4962970;28;20039;-70
2023/08/19 07:52:03;;;;;;;9.60;4.25;;;;;;;25.32;74.62;100831.56;4966345;28;20046;-70
2023/08/19 07:54:29;;;;;;;10.48;4.03;;;;;;;25.43;74.85;100842.28;4964756;28;20536;-70
2023/08/19 07:56:57;;;;;;;10.77;3.92;;;;;;;25.50;74.49;100838.25;4961334;28;20037;-70
2023/08/19 07:59:23;;;;;;;7.10;3.70;;;;;;;25.56;74.60;100845.75;4983324;28;20037;-70
2023/08/19 08:01:49;;;;;;;9.65;3.83;;;;;;;;;;4984519;28;20404;-69
2023/08/19 08:04:14;;;;;;;8.38;3.60;;;;;;;25.75;74.14;100844.50;4961629;28;20039;-70
2023/08/19 08:06:40;;;;;;;6.50;3.47;;;;;;;25.85;73.16;100833.16;4967547;28;20600;-69
2023/08/19 08:09:05;;;;;;;8.48;3.67;;;;;;;25.93;73.64;100843.19;4987758;28;20041;-70
2023/08/19 08:11:31;;;;;;;8.30;3.80;;;;;;;26.07;72.55;100846.56;4986407;28;20041;-70
2023/08/19 08:13:56;;;;;;;7.78;3.50;;;;;;;26.22;71.33;100831.41;4980008;28;20070;-70
2023/08/19 08:16:22;;;;;;;5.13;3.35;;;;;;;26.41;71.81;100838.88;4980958;28;20192;-69
2023/08/19 08:18:48;;;;;;;6.82;3.80;;;;;;;26.59;69.36;100817.16;4980495;28;20042;-70
2023/08/19 08:21:14;;;;;;;7.90;3.40;;;;;;;26.74;69.59;100823.13;4984413;28;20086;-72
2023/08/19 08:23:40;;;;;;;6.60;3.25;;;;;;;26.88;68.00;100807.06;4980223;28;20026;-69
2023/08/19 08:26:05;;;;;;;4.85;3.33;;;;;;;26.98;68.62;100818.69;4967393;28;20619;-69
2023/08/19 08:28:31;;;;;;;6.47;3.33;;;;;;;27.21;67.10;100793.88;4983983;28;20073;-69
2023/08/19 08:30:56;;;;;;;6.88;3.20;;;;;;;27.24;66.54;100784.84;4966583;28;20030;-69
2023/08/19 08:33:22;;;;;;;10.52;3.30;;;;;;;27.22;65.85;100776.16;4986673;28;20531;-69
2023/08/19 08:35:47;;;;;;;7.13;3.42;;;;;;;27.31;67.24;100812.63;4981497;28;20035;-69
2023/08/19 08:38:13;;;;;;;5.32;3.15;;;;;;;27.34;67.67;100825.66;4982038;28;20031;-69
2023/08/19 08:40:39;;;;;;;4.85;3.20;;;;;;;27.37;68.10;100820.09;4978463;28;20722;-69
2023/08/19 08:43:06;;;;;;;8.38;3.60;;;;;;;27.34;66.98;100806.22;4984977;28;20050;-68
2023/08/19 08:45:32;;;;;;;5.60;3.17;;;;;;;27.27;68.09;100817.31;4979864;28;20045;-69
2023/08/19 08:47:59;;;;;;;10.45;3.55;;;;;;;27.23;67.42;100815.84;4992032;28;20037;-69
2023/08/19 08:50:26;;;;;;;4.97;3.10;;;;;;;27.37;68.08;100836.03;5007027;28;20037;-68
2023/08/19 08:52:52;;;;;;;6.80;3.45;;;;;;;27.39;65.56;100794.28;4992803;28;20030;-69
2023/08/19 08:55:18;;;;;;;11.40;3.38;;;;;;;27.46;65.29;100800.81;4991946;28;20046;-69
2023/08/19 08:57:43;;;;;;;9.68;3.30;;;;;;;27.57;64.10;100786.72;4995389;28;20045;-69
2023/08/19 09:00:11;;;;;;;9.63;4.00;;;;;;;27.82;65.69;100813.00;4956604;28;20041;-69
2023/08/19 09:02:38;;;;;;;5.47;2.90;;;;;;;28.05;63.71;100803.22;4984846;28;20099;-69
2023/08/19 09:05:06;;;;;;;8.32;3.38;;;;;;;28.36;62.79;100797.13;4980127;28;20043;-69
2023/08/19 09:07:37;;;;;;;6.50;2.88;;;;;;;28.57;62.57;100807.81;4980132;28;20034;-69
2023/08/19 09:10:05;;;;;;;7.40;3.25;;;;;;;28.69;62.20;100812.13;4977928;28;20030;-69
2023/08/19 09:12:34;;;;;;;8.82;3.65;;;;;;;28.71;62.63;100823.47;4988385;28;20093;-69
2023/08/19 09:15:03;;;;;;;8.20;3.55;;;;;;;28.61;61.41;100796.81;4980259;28;20393;-69
2023/08/19 09:17:30;;;;;;;8.50;3.10;;;;;;;28.65;62.76;100840.78;4984746;28;20034;-69
2023/08/19 09:19:56;;;;;;;7.32;3.08;;;;;;;28.70;63.00;100864.38;4984996;28;20088;-69
2023/08/19 09:22:23;;;;;;;5.65;3.40;;;;;;;28.58;62.48;100842.28;4975707;28;20602;-69
2023/08/19 09:24:49;;;;;;;9.70;3.22;;;;;;;28.60;61.95;100837.69;4982368;28;20030;-68
2023/08/19 09:27:26;;;;;;;5.07;3.17;;;;;;;28.62;60.74;100832.25;4966981;28;20519;-69
2023/08/19 09:29:51;;;;;;;6.90;3.30;;;;;;;28.71;60.64;100834.97;4982835;28;20539;-70
2023/08/19 09:32:27;;;;;;;7.47;3.42;;;;;;;28.85;60.49;100824.09;4964517;28;20036;-69
2023/08/19 09:35:02;;;;;;;5.57;3.08;;;;;;;28.97;60.22;100829.34;4981701;28;20040;-69
2023/08/19 09:37:28;;;;;;;5.05;2.90;;;;;;;29.02;59.77;100827.13;4977621;28;20047;-70
2023/08/19 09:39:54;;;;;;;3.75;2.78;;;;;;;28.90;59.33;100823.69;4963836;28;20445;-69
2023/08/19 09:42:20;;;;;;;7.80;3.00;;;;;;;28.97;60.53;100848.81;4964002;28;20070;-69
2023/08/19 09:44:46;;;;;;;5.18;2.92;;;;;;;28.93;60.73;100852.69;4963286;28;20597;-69
2023/08/19 09:47:11;;;;;;;4.70;3.30;;;;;;;29.06;61.41;100858.72;4964694;28;20031;-69
2023/08/19 09:49:37;;;;;;;6.25;3.40;;;;;;;29.07;62.23;100888.81;4960591;28;20036;-69
2023/08/19 09:52:02;;;;;;;4.43;3.40;;;;;;;29.11;61.84;100877.78;4964710;28;20039;-69
2023/08/19 09:54:28;;;;;;;5.43;2.97;;;;;;;29.22;61.98;100872.41;4963350;28;20084;-69
2023/08/19 09:56:56;;;;;;;9.18;3.92;;;;;;;29.26;61.58;100865.00;4963294;28;20042;-69
2023/08/19 09:59:23;;;;;;;7.22;3.28;;;;;;;29.25;62.33;100881.94;4968823;28;20022;-69
2023/08/19 10:01:50;;;;;;;5.95;3.15;;;;;;;29.29;61.88;100864.75;4965208;28;20038;-69
2023/08/19 10:04:16;;;;;;;7.97;3.53;;;;;;;29.34;60.57;100844.75;4959122;28;20070;-69
2023/08/19 10:06:48;;;;;;;7.22;3.50;;;;;;;29.40;61.87;100873.53;4944245;28;20039;-71
2023/08/19 10:09:17;;;;;;;5.80;3.40;;;;;;;29.29;60.33;100838.97;4966190;28;20069;-71
2023/08/19 10:11:43;;;;;;;7.72;3.42;;;;;;;29.38;60.79;100864.84;4962460;28;20100;-69
2023/08/19 10:14:10;;;;;;;5.85;3.30;;;;;;;29.29;62.32;100880.72;4964453;28;20493;-69
2023/08/19 10:16:41;;;;;;;6.50;3.78;;;;;;;29.12;61.18;100870.66;4967100;28;20564;-68
2023/08/19 10:19:09;;;;;;;7.50;3.33;;;;;;;29.17;61.85;100884.41;4962898;28;20047;-69
2023/08/19 10:21:37;;;;;;;8.57;3.83;;;;;;;29.16;62.63;100891.56;4968693;28;20171;-69
2023/08/19 10:24:05;;;;;;;10.18;3.72;;;;;;;28.94;62.03;100890.81;4971976;28;20041;-69
2023/08/19 10:26:32;;;;;;;7.13;3.90;;;;;;;28.96;62.87;100892.38;4979941;28;20035;-69
2023/08/19 10:29:08;;;;;;;5.55;3.50;;;;;;;29.13;63.83;100901.59;4977724;28;20046;-69
2023/08/19 10:31:35;;;;;;;6.43;3.50;;;;;;;29.19;62.44;100891.28;4973505;28;20034;-69
2023/08/19 10:34:11;;;;;;;6.07;3.53;;;;;;;29.30;61.10;100858.47;4967689;28;20042;-69
2023/08/19 10:36:37;;;;;;;4.50;3.47;;;;;;;29.47;61.01;100859.69;4969200;28;20047;-69
2023/08/19 10:39:05;;;;;;;5.50;3.95;;;;;;;29.59;60.84;100867.50;4967184;28;20394;-70
2023/08/19 10:41:35;;;;;;;6.03;3.65;;;;;;;29.63;60.59;100863.56;4967209;28;20057;-69
2023/08/19 10:44:05;;;;;;;9.68;4.13;;;;;;;29.47;61.50;100871.19;4968268;28;20521;-69
2023/08/19 10:46:42;;;;;;;5.35;3.53;;;;;;;29.56;61.46;100864.25;4967653;28;20086;-69
2023/08/19 10:49:12;;;;;;;6.90;3.53;;;;;;;29.65;60.43;100871.44;4965316;28;20038;-69
2023/08/19 10:51:51;;;;;;;5.30;3.50;;;;;;;29.63;61.52;100892.06;4964483;28;20031;-70
2023/08/19 10:54:43;;;;;;;8.57;3.63;;;;;;;29.63;62.24;100895.53;4966740;28;20038;-70
2023/08/19 10:57:15;;;;;;;8.68;3.95;;;;;;;29.65;62.12;100904.28;4965233;28;20440;-70
2023/08/19 10:59:43;;;;;;;8.60;3.90;;;;;;;29.73;61.24;100883.13;4983754;28;20156;-70
2023/08/19 11:02:09;;;;;;;7.03;3.67;;;;;;;29.95;61.75;100893.66;4985250;28;20066;-70
2023/08/19 11:04:38;;;;;;;6.22;3.92;;;;;;;30.14;62.00;100908.88;4988304;28;20034;-70
2023/08/19 11:07:05;;;;;;;8.80;3.85;;;;;;;30.40;59.39;100861.25;4988634;28;20030;-70
2023/08/19 11:09:30;;;;;;;5.22;3.67;;;;;;;30.67;58.46;100856.09;4964943;28;20037;-70
2023/08/19 11:11:57;;;;;;;7.68;3.60;;;;;;;31.10;58.68;100870.88;4989341;28;20026;-71
2023/08/19 11:14:23;;;;;;;6.07;3.72;;;;;;;31.25;57.83;100864.13;4970517;28;20073;-70
2023/08/19 11:16:50;;;;;;;10.63;3.95;;;;;;;31.58;57.11;100859.16;4980748;28;20045;-70
2023/08/19 11:19:16;;;;;;;6.85;3.92;;;;;;;31.75;55.83;100846.03;4975450;28;20047;-70
2023/08/19 11:21:42;;;;;;;7.97;3.75;;;;;;;31.88;55.08;100838.53;4969740;28;20081;-70
2023/08/19 11:24:09;;;;;;;5.47;3.88;;;;;;;31.80;54.36;100855.28;4967301;28;20101;-70